METAR Data
IDs: Format: Raw Decoded Include TAF

Data at: 0621 UTC 28 Sep 2022

METAR for:KEIK (Erie Muni, CO, US)
Text:KEIK 280615Z AUTO 00000KT 10SM CLR 15/07 A3033 RMK AO2 T01450065 PWINO
Temperature: 14.5°C ( 58°F)
Dewpoint: 6.5°C ( 44°F) [RH = 59%]
Pressure (altimeter):30.33 inches Hg (1027.2 mb)
Winds:calm
Visibility:10 or more sm (16+ km)
Ceiling:at least 12,000 feet AGL
Clouds:sky clear below 12,000 feet AGL
QC Flag:automated observation with no human augmentation